sensor_id;sensor_type;location;lat;lon;timestamp;pressure;altitude;pressure_sealevel;temperature;humidity
51715;BME280;39115;59.332;18.034;2023-03-15T00:02:19;98670.34;;;0.36;73.70
51715;BME280;39115;59.332;18.034;2023-03-15T00:04:41;98667.84;;;0.35;73.42
51715;BME280;39115;59.332;18.034;2023-03-15T00:07:01;98674.72;;;0.36;73.67
51715;BME280;39115;59.332;18.034;2023-03-15T00:09:22;98677.34;;;0.36;73.70
51715;BME280;39115;59.332;18.034;2023-03-15T00:11:43;98676.66;;;0.34;73.22
51715;BME280;39115;59.332;18.034;2023-03-15T00:14:03;98685.47;;;0.33;73.18
51715;BME280;39115;59.332;18.034;2023-03-15T00:16:25;98685.59;;;0.31;73.33
51715;BME280;39115;59.332;18.034;2023-03-15T00:18:46;98697.94;;;0.29;73.58
51715;BME280;39115;59.332;18.034;2023-03-15T00:21:06;98694.63;;;0.27;73.45
51715;BME280;39115;59.332;18.034;2023-03-15T00:23:27;98698.31;;;0.24;73.40
51715;BME280;39115;59.332;18.034;2023-03-15T00:25:49;98695.81;;;0.23;73.23
51715;BME280;39115;59.332;18.034;2023-03-15T00:28:10;98703.75;;;0.21;73.47
51715;BME280;39115;59.332;18.034;2023-03-15T00:30:31;98701.41;;;0.18;73.39
51715;BME280;39115;59.332;18.034;2023-03-15T00:32:52;98703.28;;;0.16;73.30
51715;BME280;39115;59.332;18.034;2023-03-15T00:35:13;98723.41;;;0.15;73.28
51715;BME280;39115;59.332;18.034;2023-03-15T00:37:33;98715.66;;;0.14;72.92
51715;BME280;39115;59.332;18.034;2023-03-15T00:39:54;98721.00;;;0.12;73.24
51715;BME280;39115;59.332;18.034;2023-03-15T00:42:14;98722.19;;;0.08;72.99
51715;BME280;39115;59.332;18.034;2023-03-15T00:44:35;98735.25;;;0.08;73.24
51715;BME280;39115;59.332;18.034;2023-03-15T00:46:55;98738.97;;;0.06;73.17
51715;BME280;39115;59.332;18.034;2023-03-15T00:49:16;98738.25;;;0.04;72.81
51715;BME280;39115;59.332;18.034;2023-03-15T00:51:36;98752.38;;;0.01;73.15
51715;BME280;39115;59.332;18.034;2023-03-15T00:53:57;98758.69;;;-0.02;73.16
51715;BME280;39115;59.332;18.034;2023-03-15T00:56:23;98768.41;;;-0.04;72.70
51715;BME280;39115;59.332;18.034;2023-03-15T00:58:44;98773.78;;;-0.05;72.98
51715;BME280;39115;59.332;18.034;2023-03-15T01:01:13;98773.91;;;-0.07;72.94
51715;BME280;39115;59.332;18.034;2023-03-15T01:03:35;98772.34;;;-0.09;72.62
51715;BME280;39115;59.332;18.034;2023-03-15T01:05:56;98769.97;;;-0.12;72.70
51715;BME280;39115;59.332;18.034;2023-03-15T01:08:16;98788.38;;;-0.14;72.80
51715;BME280;39115;59.332;18.034;2023-03-15T01:10:36;98784.22;;;-0.17;72.87
51715;BME280;39115;59.332;18.034;2023-03-15T01:12:57;98785.25;;;-0.19;72.83
51715;BME280;39115;59.332;18.034;2023-03-15T01:15:17;98788.84;;;-0.20;72.89
51715;BME280;39115;59.332;18.034;2023-03-15T01:17:38;98794.19;;;-0.22;72.92
51715;BME280;39115;59.332;18.034;2023-03-15T01:19:59;98801.19;;;-0.22;72.87
51715;BME280;39115;59.332;18.034;2023-03-15T01:22:21;98803.09;;;-0.24;72.65
51715;BME280;39115;59.332;18.034;2023-03-15T01:24:41;98811.19;;;-0.27;72.50
51715;BME280;39115;59.332;18.034;2023-03-15T01:27:02;98817.34;;;-0.28;72.58
51715;BME280;39115;59.332;18.034;2023-03-15T01:29:22;98811.50;;;-0.32;72.38
51715;BME280;39115;59.332;18.034;2023-03-15T01:31:43;98826.34;;;-0.33;72.76
51715;BME280;39115;59.332;18.034;2023-03-15T01:34:03;98826.47;;;-0.34;72.48
51715;BME280;39115;59.332;18.034;2023-03-15T01:36:24;98831.09;;;-0.38;72.39
51715;BME280;39115;59.332;18.034;2023-03-15T01:38:45;98837.25;;;-0.39;72.30
51715;BME280;39115;59.332;18.034;2023-03-15T01:41:06;98836.53;;;-0.41;72.63
51715;BME280;39115;59.332;18.034;2023-03-15T01:43:28;98841.88;;;-0.42;72.49
51715;BME280;39115;59.332;18.034;2023-03-15T01:46:20;98843.66;;;-0.43;72.20
51715;BME280;39115;59.332;18.034;2023-03-15T01:49:06;98842.09;;;-0.45;72.39
51715;BME280;39115;59.332;18.034;2023-03-15T01:51:44;98837.19;;;-0.50;72.31
51715;BME280;39115;59.332;18.034;2023-03-15T01:56:48;98842.78;;;-0.55;72.27
51715;BME280;39115;59.332;18.034;2023-03-15T01:59:14;98843.72;;;-0.56;72.26
51715;BME280;39115;59.332;18.034;2023-03-15T02:01:37;98852.50;;;-0.57;72.04
51715;BME280;39115;59.332;18.034;2023-03-15T02:04:08;98853.56;;;-0.59;72.15
51715;BME280;39115;59.332;18.034;2023-03-15T02:06:32;98861.59;;;-0.62;72.12
51715;BME280;39115;59.332;18.034;2023-03-15T02:08:56;98862.53;;;-0.64;71.96
51715;BME280;39115;59.332;18.034;2023-03-15T02:11:20;98864.44;;;-0.66;71.90
51715;BME280;39115;59.332;18.034;2023-03-15T02:13:41;98865.50;;;-0.68;72.23
51715;BME280;39115;59.332;18.034;2023-03-15T02:16:01;98869.03;;;-0.69;72.06
51715;BME280;39115;59.332;18.034;2023-03-15T02:18:25;98873.56;;;-0.71;71.98
51715;BME280;39115;59.332;18.034;2023-03-15T02:20:54;98881.50;;;-0.73;71.99
51715;BME280;39115;59.332;18.034;2023-03-15T02:23:21;98885.28;;;-0.77;71.85
51715;BME280;39115;59.332;18.034;2023-03-15T02:28:07;98889.03;;;-0.81;71.88
51715;BME280;39115;59.332;18.034;2023-03-15T02:30:29;98897.09;;;-0.84;72.13
51715;BME280;39115;59.332;18.034;2023-03-15T02:32:50;98898.16;;;-0.87;72.09
51715;BME280;39115;59.332;18.034;2023-03-15T02:35:11;98905.13;;;-0.87;72.07
51715;BME280;39115;59.332;18.034;2023-03-15T02:37:31;98907.97;;;-0.90;72.14
51715;BME280;39115;59.332;18.034;2023-03-15T02:39:52;98908.19;;;-0.93;71.96
51715;BME280;39115;59.332;18.034;2023-03-15T02:42:12;98914.34;;;-0.94;72.26
51715;BME280;39115;59.332;18.034;2023-03-15T02:44:35;98917.06;;;-0.96;71.94
51715;BME280;39115;59.332;18.034;2023-03-15T02:47:02;98915.41;;;-0.97;71.73
51715;BME280;39115;59.332;18.034;2023-03-15T02:49:27;98922.50;;;-0.99;71.78
51715;BME280;39115;59.332;18.034;2023-03-15T02:51:49;98921.69;;;-1.00;71.95
51715;BME280;39115;59.332;18.034;2023-03-15T02:54:10;98921.69;;;-1.00;71.81
51715;BME280;39115;59.332;18.034;2023-03-15T02:56:30;98929.50;;;-1.00;71.86
51715;BME280;39115;59.332;18.034;2023-03-15T02:58:52;98929.50;;;-1.00;71.92
51715;BME280;39115;59.332;18.034;2023-03-15T03:01:13;98932.25;;;-1.01;71.88
51715;BME280;39115;59.332;18.034;2023-03-15T03:03:34;98938.41;;;-1.02;71.57
51715;BME280;39115;59.332;18.034;2023-03-15T03:05:54;98948.09;;;-1.04;71.98
51715;BME280;39115;59.332;18.034;2023-03-15T03:08:15;98950.84;;;-1.06;71.86
51715;BME280;39115;59.332;18.034;2023-03-15T03:10:35;98952.81;;;-1.09;71.93
51715;BME280;39115;59.332;18.034;2023-03-15T03:12:56;98954.56;;;-1.10;71.57
51715;BME280;39115;59.332;18.034;2023-03-15T03:15:16;98962.53;;;-1.12;71.78
51715;BME280;39115;59.332;18.034;2023-03-15T03:17:37;98960.84;;;-1.13;71.81
51715;BME280;39115;59.332;18.034;2023-03-15T03:19:57;98975.78;;;-1.15;71.61
51715;BME280;39115;59.332;18.034;2023-03-15T03:22:18;98974.09;;;-1.16;71.45
51715;BME280;39115;59.332;18.034;2023-03-15T03:24:39;98975.06;;;-1.17;71.61
51715;BME280;39115;59.332;18.034;2023-03-15T03:27:05;98974.31;;;-1.19;71.53
51715;BME280;39115;59.332;18.034;2023-03-15T03:29:25;98970.97;;;-1.21;71.57
51715;BME280;39115;59.332;18.034;2023-03-15T03:31:46;98978.81;;;-1.21;71.62
51715;BME280;39115;59.332;18.034;2023-03-15T03:34:06;98982.34;;;-1.22;71.77
51715;BME280;39115;59.332;18.034;2023-03-15T03:36:29;98986.75;;;-1.22;71.55
51715;BME280;39115;59.332;18.034;2023-03-15T03:38:50;98994.59;;;-1.22;71.66
51715;BME280;39115;59.332;18.034;2023-03-15T03:41:12;98994.66;;;-1.24;71.35
51715;BME280;39115;59.332;18.034;2023-03-15T03:43:33;98994.66;;;-1.24;71.56
51715;BME280;39115;59.332;18.034;2023-03-15T03:45:54;99003.53;;;-1.27;71.41
51715;BME280;39115;59.332;18.034;2023-03-15T03:48:14;99010.44;;;-1.25;71.45
51715;BME280;39115;59.332;18.034;2023-03-15T03:50:35;99004.47;;;-1.28;71.44
51715;BME280;39115;59.332;18.034;2023-03-15T03:52:55;99004.47;;;-1.28;71.38
51715;BME280;39115;59.332;18.034;2023-03-15T03:55:15;99011.59;;;-1.30;71.32
51715;BME280;39115;59.332;18.034;2023-03-15T03:57:36;99017.66;;;-1.29;71.47
51715;BME280;39115;59.332;18.034;2023-03-15T03:59:56;99018.56;;;-1.30;71.27
51715;BME280;39115;59.332;18.034;2023-03-15T04:02:18;99022.97;;;-1.31;71.16
51715;BME280;39115;59.332;18.034;2023-03-15T04:04:38;99025.69;;;-1.32;71.22
51715;BME280;39115;59.332;18.034;2023-03-15T04:07:00;99023.16;;;-1.34;71.41
51715;BME280;39115;59.332;18.034;2023-03-15T04:09:21;99036.03;;;-1.31;71.36
51715;BME280;39115;59.332;18.034;2023-03-15T04:11:44;99035.19;;;-1.31;71.02
51715;BME280;39115;59.332;18.034;2023-03-15T04:14:04;99039.56;;;-1.32;71.05
51715;BME280;39115;59.332;18.034;2023-03-15T04:16:25;99040.41;;;-1.31;71.32
51715;BME280;39115;59.332;18.034;2023-03-15T04:18:45;99038.66;;;-1.31;71.20
51715;BME280;39115;59.332;18.034;2023-03-15T04:21:06;99032.56;;;-1.31;71.08
51715;BME280;39115;59.332;18.034;2023-03-15T04:23:29;99038.75;;;-1.32;71.08
51715;BME280;39115;59.332;18.034;2023-03-15T04:25:51;99044.81;;;-1.32;70.89
51715;BME280;39115;59.332;18.034;2023-03-15T04:28:14;99038.75;;;-1.32;71.20
51715;BME280;39115;59.332;18.034;2023-03-15T04:30:35;99035.28;;;-1.33;71.04
51715;BME280;39115;59.332;18.034;2023-03-15T04:32:56;99038.00;;;-1.34;71.01
51715;BME280;39115;59.332;18.034;2023-03-15T04:35:22;99038.00;;;-1.34;71.12
51715;BME280;39115;59.332;18.034;2023-03-15T04:37:43;99044.97;;;-1.35;71.09
51715;BME280;39115;59.332;18.034;2023-03-15T04:40:03;99040.81;;;-1.37;71.19
51715;BME280;39115;59.332;18.034;2023-03-15T04:42:26;99047.06;;;-1.40;71.20
51715;BME280;39115;59.332;18.034;2023-03-15T04:44:46;99044.56;;;-1.41;71.17
51715;BME280;39115;59.332;18.034;2023-03-15T04:47:07;99047.19;;;-1.41;71.21
51715;BME280;39115;59.332;18.034;2023-03-15T04:49:27;99049.78;;;-1.41;71.22
51715;BME280;39115;59.332;18.034;2023-03-15T04:51:48;99049.88;;;-1.43;71.08
51715;BME280;39115;59.332;18.034;2023-03-15T04:54:08;99054.38;;;-1.45;71.25
51715;BME280;39115;59.332;18.034;2023-03-15T04:56:29;99050.09;;;-1.46;71.35
51715;BME280;39115;59.332;18.034;2023-03-15T04:58:49;99054.44;;;-1.47;71.37
51715;BME280;39115;59.332;18.034;2023-03-15T05:01:10;99058.84;;;-1.47;71.25
51715;BME280;39115;59.332;18.034;2023-03-15T05:03:31;99063.03;;;-1.45;71.26
51715;BME280;39115;59.332;18.034;2023-03-15T05:05:51;99067.44;;;-1.45;71.51
51715;BME280;39115;59.332;18.034;2023-03-15T05:08:12;99073.47;;;-1.45;71.21
51715;BME280;39115;59.332;18.034;2023-03-15T05:10:32;99077.88;;;-1.45;71.40
51715;BME280;39115;59.332;18.034;2023-03-15T05:12:52;99080.47;;;-1.45;71.45
51715;BME280;39115;59.332;18.034;2023-03-15T05:15:13;99082.16;;;-1.44;71.41
51715;BME280;39115;59.332;18.034;2023-03-15T05:17:33;99076.19;;;-1.46;71.25
51715;BME280;39115;59.332;18.034;2023-03-15T05:19:54;99081.19;;;-1.43;71.31
51715;BME280;39115;59.332;18.034;2023-03-15T05:22:15;99086.22;;;-1.40;71.31
51715;BME280;39115;59.332;18.034;2023-03-15T05:24:35;99094.81;;;-1.38;71.35
51715;BME280;39115;59.332;18.034;2023-03-15T05:26:56;99097.31;;;-1.36;71.31
51715;BME280;39115;59.332;18.034;2023-03-15T05:29:16;99097.19;;;-1.35;71.67
51715;BME280;39115;59.332;18.034;2023-03-15T05:31:36;99099.81;;;-1.35;71.33
51715;BME280;39115;59.332;18.034;2023-03-15T05:33:57;99111.00;;;-1.33;71.44
51715;BME280;39115;59.332;18.034;2023-03-15T05:36:17;99113.50;;;-1.31;71.39
51715;BME280;39115;59.332;18.034;2023-03-15T05:38:38;99116.97;;;-1.31;71.48
51715;BME280;39115;59.332;18.034;2023-03-15T05:40:58;99121.25;;;-1.30;71.42
51715;BME280;39115;59.332;18.034;2023-03-15T05:43:21;99116.84;;;-1.29;71.21
51715;BME280;39115;59.332;18.034;2023-03-15T05:45:41;99128.06;;;-1.27;71.40
51715;BME280;39115;59.332;18.034;2023-03-15T05:48:04;99126.25;;;-1.27;71.49
51715;BME280;39115;59.332;18.034;2023-03-15T05:50:24;99138.28;;;-1.24;71.46
51715;BME280;39115;59.332;18.034;2023-03-15T05:52:49;99142.56;;;-1.23;71.56
51715;BME280;39115;59.332;18.034;2023-03-15T05:55:09;99143.44;;;-1.22;71.46
51715;BME280;39115;59.332;18.034;2023-03-15T05:57:30;99142.50;;;-1.21;71.67
51715;BME280;39115;59.332;18.034;2023-03-15T05:59:50;99148.44;;;-1.19;71.39
51715;BME280;39115;59.332;18.034;2023-03-15T06:02:11;99147.50;;;-1.18;71.38
51715;BME280;39115;59.332;18.034;2023-03-15T06:04:31;99147.44;;;-1.17;71.45
51715;BME280;39115;59.332;18.034;2023-03-15T06:06:52;99151.69;;;-1.16;71.23
51715;BME280;39115;59.332;18.034;2023-03-15T06:09:12;99153.28;;;-1.13;71.30
51715;BME280;39115;59.332;18.034;2023-03-15T06:11:33;99162.47;;;-1.07;71.24
51715;BME280;39115;59.332;18.034;2023-03-15T06:13:53;99165.72;;;-1.04;71.27
51715;BME280;39115;59.332;18.034;2023-03-15T06:16:14;99170.75;;;-1.01;71.05
51715;BME280;39115;59.332;18.034;2023-03-15T06:18:34;99175.69;;;-0.96;71.30
51715;BME280;39115;59.332;18.034;2023-03-15T06:20:55;99175.69;;;-0.96;71.31
51715;BME280;39115;59.332;18.034;2023-03-15T06:23:15;99184.16;;;-0.92;71.19
51715;BME280;39115;59.332;18.034;2023-03-15T06:25:36;99193.56;;;-0.90;71.02
51715;BME280;39115;59.332;18.034;2023-03-15T06:27:56;99189.19;;;-0.89;71.23
51715;BME280;39115;59.332;18.034;2023-03-15T06:30:17;99187.94;;;-0.84;71.00
51715;BME280;39115;59.332;18.034;2023-03-15T06:32:39;99193.91;;;-0.82;70.93
51715;BME280;39115;59.332;18.034;2023-03-15T06:35:00;99192.88;;;-0.79;70.95
51715;BME280;39115;59.332;18.034;2023-03-15T06:37:20;99210.03;;;-0.75;71.01
51715;BME280;39115;59.332;18.034;2023-03-15T06:39:41;99206.38;;;-0.72;70.83
51715;BME280;39115;59.332;18.034;2023-03-15T06:42:04;99221.03;;;-0.70;70.93
51715;BME280;39115;59.332;18.034;2023-03-15T06:44:25;99231.28;;;-0.67;70.95
51715;BME280;39115;59.332;18.034;2023-03-15T06:46:46;99222.28;;;-0.62;70.74
51715;BME280;39115;59.332;18.034;2023-03-15T06:49:07;99231.63;;;-0.58;70.70
51715;BME280;39115;59.332;18.034;2023-03-15T06:51:27;99225.44;;;-0.57;70.67
51715;BME280;39115;59.332;18.034;2023-03-15T06:53:48;99219.09;;;-0.53;70.94
51715;BME280;39115;59.332;18.034;2023-03-15T06:56:09;99233.72;;;-0.51;70.84
51715;BME280;39115;59.332;18.034;2023-03-15T06:58:30;99236.88;;;-0.45;70.45
51715;BME280;39115;59.332;18.034;2023-03-15T07:00:50;99237.41;;;-0.40;70.31
51715;BME280;39115;59.332;18.034;2023-03-15T07:03:11;99237.13;;;-0.36;70.48
51715;BME280;39115;59.332;18.034;2023-03-15T07:05:31;99236.72;;;-0.29;70.33
51715;BME280;39115;59.332;18.034;2023-03-15T07:07:52;99251.25;;;-0.25;70.41
51715;BME280;39115;59.332;18.034;2023-03-15T07:10:13;99246.75;;;-0.23;70.41
51715;BME280;39115;59.332;18.034;2023-03-15T07:12:33;99239.44;;;-0.18;70.33
51715;BME280;39115;59.332;18.034;2023-03-15T07:14:54;99239.03;;;-0.12;70.18
51715;BME280;39115;59.332;18.034;2023-03-15T07:17:14;99256.94;;;-0.06;69.92
51715;BME280;39115;59.332;18.034;2023-03-15T07:19:35;99249.72;;;-0.02;70.21
51715;BME280;39115;59.332;18.034;2023-03-15T07:21:55;99253.69;;;0.04;69.86
51715;BME280;39115;59.332;18.034;2023-03-15T07:24:16;99255.91;;;0.10;69.73
51715;BME280;39115;59.332;18.034;2023-03-15T07:26:37;99251.06;;;0.17;69.51
51715;BME280;39115;59.332;18.034;2023-03-15T07:28:57;99248.13;;;0.21;69.18
51715;BME280;39115;59.332;18.034;2023-03-15T07:31:18;99262.59;;;0.27;69.40
51715;BME280;39115;59.332;18.034;2023-03-15T07:33:39;99255.88;;;0.36;69.18
51715;BME280;39115;59.332;18.034;2023-03-15T07:36:00;99249.25;;;0.43;69.09
51715;BME280;39115;59.332;18.034;2023-03-15T07:38:25;99246.00;;;0.52;69.01
51715;BME280;39115;59.332;18.034;2023-03-15T07:40:45;99250.50;;;0.63;69.05
51715;BME280;39115;59.332;18.034;2023-03-15T07:43:06;99273.34;;;0.74;68.46
51715;BME280;39115;59.332;18.034;2023-03-15T07:45:26;99274.59;;;0.81;68.16
51715;BME280;39115;59.332;18.034;2023-03-15T07:47:47;99272.34;;;0.88;68.16
51715;BME280;39115;59.332;18.034;2023-03-15T07:50:08;99273.69;;;0.93;67.73
51715;BME280;39115;59.332;18.034;2023-03-15T07:52:28;99275.06;;;0.99;67.98
51715;BME280;39115;59.332;18.034;2023-03-15T07:54:49;99278.66;;;1.09;67.91
51715;BME280;39115;59.332;18.034;2023-03-15T07:57:10;99272.91;;;1.17;67.45
51715;BME280;39115;59.332;18.034;2023-03-15T07:59:30;99278.41;;;1.25;67.61
51715;BME280;39115;59.332;18.034;2023-03-15T08:01:51;99274.41;;;1.33;67.19
51715;BME280;39115;59.332;18.034;2023-03-15T08:04:11;99276.56;;;1.39;66.56
51715;BME280;39115;59.332;18.034;2023-03-15T08:06:32;99283.16;;;1.45;66.83
51715;BME280;39115;59.332;18.034;2023-03-15T08:08:52;99280.22;;;1.49;66.58
51715;BME280;39115;59.332;18.034;2023-03-15T08:11:13;99283.09;;;1.57;66.20
51715;BME280;39115;59.332;18.034;2023-03-15T08:13:33;99286.09;;;1.64;65.86
51715;BME280;39115;59.332;18.034;2023-03-15T08:15:54;99298.66;;;1.72;65.88
51715;BME280;39115;59.332;18.034;2023-03-15T08:18:14;99301.78;;;1.77;65.74
51715;BME280;39115;59.332;18.034;2023-03-15T08:20:34;99302.16;;;1.84;65.67
51715;BME280;39115;59.332;18.034;2023-03-15T08:22:55;99311.38;;;1.89;65.50
51715;BME280;39115;59.332;18.034;2023-03-15T08:25:18;99307.44;;;1.95;65.33
51715;BME280;39115;59.332;18.034;2023-03-15T08:27:40;99324.53;;;2.01;64.67
51715;BME280;39115;59.332;18.034;2023-03-15T08:30:01;99315.47;;;2.05;64.85
51715;BME280;39115;59.332;18.034;2023-03-15T08:32:21;99320.47;;;2.08;64.59
51715;BME280;39115;59.332;18.034;2023-03-15T08:34:42;99327.19;;;2.12;64.66
51715;BME280;39115;59.332;18.034;2023-03-15T08:37:03;99333.53;;;2.21;64.35
51715;BME280;39115;59.332;18.034;2023-03-15T08:39:23;99345.13;;;2.30;64.18
51715;BME280;39115;59.332;18.034;2023-03-15T08:41:44;99335.94;;;2.35;64.00
51715;BME280;39115;59.332;18.034;2023-03-15T08:44:06;99333.56;;;2.44;63.99
51715;BME280;39115;59.332;18.034;2023-03-15T08:46:27;99343.50;;;2.51;63.61
51715;BME280;39115;59.332;18.034;2023-03-15T08:48:47;99344.72;;;2.59;63.49
51715;BME280;39115;59.332;18.034;2023-03-15T08:51:08;99340.78;;;2.64;63.06
51715;BME280;39115;59.332;18.034;2023-03-15T08:53:29;99350.09;;;2.68;63.28
51715;BME280;39115;59.332;18.034;2023-03-15T08:55:50;99379.59;;;2.72;62.90
51715;BME280;39115;59.332;18.034;2023-03-15T08:58:11;99368.00;;;2.75;62.74
51715;BME280;39115;59.332;18.034;2023-03-15T09:00:33;99356.75;;;2.73;62.36
51715;BME280;39115;59.332;18.034;2023-03-15T09:02:54;99358.56;;;2.72;62.07
51715;BME280;39115;59.332;18.034;2023-03-15T09:05:15;99355.59;;;2.77;62.24
51715;BME280;39115;59.332;18.034;2023-03-15T09:07:35;99368.50;;;2.80;61.86
51715;BME280;39115;59.332;18.034;2023-03-15T09:09:56;99378.53;;;2.86;61.80
51715;BME280;39115;59.332;18.034;2023-03-15T09:12:16;99371.00;;;2.93;61.54
51715;BME280;39115;59.332;18.034;2023-03-15T09:14:37;99375.06;;;2.97;61.51
51715;BME280;39115;59.332;18.034;2023-03-15T09:16:57;99384.16;;;3.04;61.13
51715;BME280;39115;59.332;18.034;2023-03-15T09:19:18;99379.50;;;3.08;61.24
51715;BME280;39115;59.332;18.034;2023-03-15T09:21:38;99374.81;;;3.11;61.05
51715;BME280;39115;59.332;18.034;2023-03-15T09:23:59;99383.91;;;3.19;60.74
51715;BME280;39115;59.332;18.034;2023-03-15T09:26:19;99394.91;;;3.24;60.65
51715;BME280;39115;59.332;18.034;2023-03-15T09:28:40;99403.28;;;3.29;60.17
51715;BME280;39115;59.332;18.034;2023-03-15T09:31:04;99389.75;;;3.34;59.91
51715;BME280;39115;59.332;18.034;2023-03-15T09:33:25;99399.94;;;3.38;59.90
51715;BME280;39115;59.332;18.034;2023-03-15T09:35:46;99401.81;;;3.47;59.91
51715;BME280;39115;59.332;18.034;2023-03-15T09:38:06;99406.34;;;3.57;59.65
51715;BME280;39115;59.332;18.034;2023-03-15T09:40:29;99418.63;;;3.68;59.40
51715;BME280;39115;59.332;18.034;2023-03-15T09:43:01;99415.50;;;3.74;59.14
51715;BME280;39115;59.332;18.034;2023-03-15T09:48:11;99423.63;;;3.82;58.67
51715;BME280;39115;59.332;18.034;2023-03-15T09:50:48;99421.72;;;3.84;59.21
51715;BME280;39115;59.332;18.034;2023-03-15T09:53:27;99416.59;;;3.83;58.77
51715;BME280;39115;59.332;18.034;2023-03-15T09:55:51;99434.06;;;3.84;58.21
51715;BME280;39115;59.332;18.034;2023-03-15T09:58:19;99433.78;;;3.87;58.24
51715;BME280;39115;59.332;18.034;2023-03-15T10:00:45;99456.66;;;3.86;57.54
51715;BME280;39115;59.332;18.034;2023-03-15T10:03:21;99461.78;;;3.88;57.72
51715;BME280;39115;59.332;18.034;2023-03-15T10:05:55;99442.53;;;3.87;57.52
51715;BME280;39115;59.332;18.034;2023-03-15T10:08:18;99459.03;;;3.89;57.31
51715;BME280;39115;59.332;18.034;2023-03-15T10:14:11;99459.16;;;3.99;56.90
51715;BME280;39115;59.332;18.034;2023-03-15T10:23:57;99464.50;;;4.09;56.17
51715;BME280;39115;59.332;18.034;2023-03-15T10:26:27;99466.03;;;4.11;55.67
51715;BME280;39115;59.332;18.034;2023-03-15T10:28:48;99503.63;;;4.14;55.36
51715;BME280;39115;59.332;18.034;2023-03-15T10:31:15;99476.34;;;4.15;54.89
51715;BME280;39115;59.332;18.034;2023-03-15T10:33:39;99490.09;;;4.18;55.20
51715;BME280;39115;59.332;18.034;2023-03-15T10:36:02;99478.34;;;4.22;54.84
51715;BME280;39115;59.332;18.034;2023-03-15T10:38:30;99493.53;;;4.30;54.84
51715;BME280;39115;59.332;18.034;2023-03-15T10:40:55;99524.88;;;4.33;54.22
51715;BME280;39115;59.332;18.034;2023-03-15T10:45:41;99509.56;;;4.38;53.97
51715;BME280;39115;59.332;18.034;2023-03-15T10:48:01;99519.00;;;4.41;54.08
51715;BME280;39115;59.332;18.034;2023-03-15T10:50:28;99516.25;;;4.42;53.53
51715;BME280;39115;59.332;18.034;2023-03-15T10:52:53;99523.91;;;4.46;53.45
51715;BME280;39115;59.332;18.034;2023-03-15T10:55:19;99512.50;;;4.45;52.88
51715;BME280;39115;59.332;18.034;2023-03-15T10:57:51;99521.00;;;4.49;53.59
51715;BME280;39115;59.332;18.034;2023-03-15T11:03:00;99538.84;;;4.56;53.02
51715;BME280;39115;59.332;18.034;2023-03-15T11:05:21;99548.28;;;4.59;52.90
51715;BME280;39115;59.332;18.034;2023-03-15T11:08:02;99543.47;;;4.64;52.91
51715;BME280;39115;59.332;18.034;2023-03-15T11:10:24;99537.25;;;4.65;52.37
51715;BME280;39115;59.332;18.034;2023-03-15T11:12:45;99555.69;;;4.65;52.00
51715;BME280;39115;59.332;18.034;2023-03-15T11:15:13;99543.59;;;4.63;51.81
51715;BME280;39115;59.332;18.034;2023-03-15T11:17:40;99555.97;;;4.62;52.02
51715;BME280;39115;59.332;18.034;2023-03-15T11:20:09;99554.72;;;4.66;51.48
51715;BME280;39115;59.332;18.034;2023-03-15T11:22:38;99553.53;;;4.70;51.53
51715;BME280;39115;59.332;18.034;2023-03-15T11:24:59;99551.34;;;4.75;51.44
51715;BME280;39115;59.332;18.034;2023-03-15T11:27:22;99564.25;;;4.79;51.24
51715;BME280;39115;59.332;18.034;2023-03-15T11:29:46;99561.50;;;4.80;50.74
51715;BME280;39115;59.332;18.034;2023-03-15T11:32:22;99561.97;;;4.85;51.39
51715;BME280;39115;59.332;18.034;2023-03-15T11:34:58;99570.31;;;4.90;51.63
51715;BME280;39115;59.332;18.034;2023-03-15T11:37:45;99567.31;;;4.95;51.54
51715;BME280;39115;59.332;18.034;2023-03-15T11:40:29;99554.84;;;4.97;51.54
51715;BME280;39115;59.332;18.034;2023-03-15T11:43:10;99578.44;;;4.99;51.11
51715;BME280;39115;59.332;18.034;2023-03-15T11:45:46;99575.31;;;5.05;51.14
51715;BME280;39115;59.332;18.034;2023-03-15T11:50:43;99590.09;;;5.17;49.98
51715;BME280;39115;59.332;18.034;2023-03-15T11:53:05;99588.19;;;5.19;49.63
51715;BME280;39115;59.332;18.034;2023-03-15T11:55:27;99591.50;;;5.21;49.24
51715;BME280;39115;59.332;18.034;2023-03-15T11:57:48;99603.75;;;5.22;48.84
51715;BME280;39115;59.332;18.034;2023-03-15T12:00:49;99601.81;;;5.25;49.78
51715;BME280;39115;59.332;18.034;2023-03-15T12:05:49;99601.19;;;5.32;48.70
51715;BME280;39115;59.332;18.034;2023-03-15T12:08:23;99614.09;;;5.35;48.99
51715;BME280;39115;59.332;18.034;2023-03-15T12:10:47;99605.38;;;5.35;48.40
51715;BME280;39115;59.332;18.034;2023-03-15T12:13:18;99621.31;;;5.33;49.13
51715;BME280;39115;59.332;18.034;2023-03-15T12:15:41;99623.00;;;5.34;48.14
51715;BME280;39115;59.332;18.034;2023-03-15T12:18:03;99632.34;;;5.38;48.10
51715;BME280;39115;59.332;18.034;2023-03-15T12:20:36;99629.31;;;5.43;48.11
51715;BME280;39115;59.332;18.034;2023-03-15T12:28:17;99632.44;;;5.58;48.07
51715;BME280;39115;59.332;18.034;2023-03-15T12:30:40;99641.91;;;5.61;47.65
51715;BME280;39115;59.332;18.034;2023-03-15T12:33:02;99649.81;;;5.61;47.74
51715;BME280;39115;59.332;18.034;2023-03-15T12:35:37;99656.69;;;5.63;47.69
51715;BME280;39115;59.332;18.034;2023-03-15T12:37:59;99646.56;;;5.68;47.59
51715;BME280;39115;59.332;18.034;2023-03-15T12:55:34;99682.28;;;5.94;47.28
51715;BME280;39115;59.332;18.034;2023-03-15T12:57:55;99683.00;;;5.96;46.77
51715;BME280;39115;59.332;18.034;2023-03-15T13:00:24;99679.50;;;5.95;46.64
51715;BME280;39115;59.332;18.034;2023-03-15T13:02:51;99690.56;;;6.00;46.33
51715;BME280;39115;59.332;18.034;2023-03-15T13:07:57;99703.88;;;5.99;47.10
51715;BME280;39115;59.332;18.034;2023-03-15T13:15:41;99720.31;;;5.81;46.26
51715;BME280;39115;59.332;18.034;2023-03-15T13:18:12;99719.72;;;5.78;45.92
51715;BME280;39115;59.332;18.034;2023-03-15T13:20:51;99711.81;;;5.78;46.47
51715;BME280;39115;59.332;18.034;2023-03-15T13:23:19;99713.19;;;5.82;46.07
51715;BME280;39115;59.332;18.034;2023-03-15T13:31:21;99735.81;;;5.96;45.85
51715;BME280;39115;59.332;18.034;2023-03-15T13:33:47;99725.00;;;5.99;45.41
51715;BME280;39115;59.332;18.034;2023-03-15T13:36:13;99723.78;;;6.03;45.29